Time;durP1;ratioP1;P1;durP2;ratioP2;P2;SDS_P1;SDS_P2;PMS_P1;PMS_P2;Temp;Humidity;BMP_temperature;BMP_pressure;BME280_temperature;BME280_humidity;BME280_pressure;Samples;Min_cycle;Max_cycle;Signal;HPM_P1;HPM_P2
2023/02/17 00:01:27;;;;;;;37.25;17.05;;;;;;;10.43;90.46;101605.50;5053421;28;20045;-58
2023/02/17 00:03:54;;;;;;;35.00;16.48;;;;;;;10.42;90.32;101591.38;5053004;28;20068;-58
2023/02/17 00:06:24;;;;;;;36.53;16.88;;;;;;;10.49;90.09;101589.03;5053922;28;20041;-58
2023/02/17 00:08:51;;;;;;;37.47;16.38;;;;;;;10.48;89.82;101577.59;5053501;28;20040;-58
2023/02/17 00:11:18;;;;;;;33.78;16.63;;;;;;;10.47;89.67;101581.19;5053819;28;20060;-58
2023/02/17 00:13:46;;;;;;;35.90;16.67;;;;;;;10.44;89.93;101576.19;5053435;28;20086;-58
2023/02/17 00:16:20;;;;;;;35.95;17.35;;;;;;;10.43;90.18;101578.97;5053330;28;20041;-58
2023/02/17 00:18:51;;;;;;;35.38;15.35;;;;;;;10.44;90.46;101575.31;5052366;28;20071;-58
2023/02/17 00:21:20;;;;;;;35.03;16.08;;;;;;;10.44;90.08;101576.19;5053822;28;20368;-58
2023/02/17 00:23:48;;;;;;;48.67;17.58;;;;;;;10.46;90.39;101573.38;5053491;28;20106;-58
2023/02/17 00:26:16;;;;;;;38.40;15.05;;;;;;;10.46;90.06;101574.22;5053663;28;20132;-58
2023/02/17 00:28:44;;;;;;;36.42;16.60;;;;;;;10.51;90.27;101579.13;5053126;28;20143;-58
2023/02/17 00:31:14;;;;;;;33.80;17.23;;;;;;;10.44;90.43;101578.84;5053565;28;20045;-58
2023/02/17 00:33:41;;;;;;;31.88;17.05;;;;;;;10.51;90.14;101577.34;5053170;28;20053;-59
2023/02/17 00:36:16;;;;;;;33.90;16.48;;;;;;;10.46;90.65;101579.53;5053271;28;20128;-59
2023/02/17 00:38:44;;;;;;;34.00;16.15;;;;;;;10.36;91.27;101579.47;5053153;28;20120;-58
2023/02/17 00:41:11;;;;;;;37.13;15.77;;;;;;;10.46;90.97;101578.69;5052967;28;20461;-58
2023/02/17 00:43:38;;;;;;;40.08;15.63;;;;;;;10.49;90.86;101584.56;5053009;28;20123;-58
2023/02/17 00:46:04;;;;;;;38.63;15.05;;;;;;;10.43;91.19;101579.78;5053217;28;20087;-58
2023/02/17 00:48:32;;;;;;;34.15;15.02;;;;;;;10.39;91.85;101583.69;5051833;28;20136;-58
2023/02/17 00:50:59;;;;;;;35.15;14.85;;;;;;;10.38;91.94;101571.38;5053176;28;20436;-58
2023/02/17 00:53:26;;;;;;;30.85;15.45;;;;;;;10.46;91.73;101581.31;5053182;28;20120;-57
2023/02/17 00:55:53;;;;;;;32.35;15.23;;;;;;;10.46;92.03;101571.59;5052705;28;20061;-58
2023/02/17 00:58:19;;;;;;;28.67;14.95;;;;;;;10.54;91.72;101571.75;5052979;28;20045;-57
2023/02/17 01:00:46;;;;;;;43.60;15.50;;;;;;;10.42;92.70;101566.66;5050962;28;20048;-58
2023/02/17 01:03:13;;;;;;;29.27;14.70;;;;;;;10.41;92.63;101563.19;5053033;28;20124;-58
2023/02/17 01:05:42;;;;;;;26.90;14.85;;;;;;;10.46;92.69;101560.97;5053019;28;20486;-58
2023/02/17 01:08:09;;;;;;;32.80;14.82;;;;;;;10.43;93.09;101561.22;5053052;28;20049;-58
2023/02/17 01:10:38;;;;;;;34.83;15.20;;;;;;;10.30;93.57;101560.59;5052911;28;20041;-58
2023/02/17 01:13:05;;;;;;;33.50;14.88;;;;;;;10.26;94.82;101551.19;5051388;28;20094;-58
2023/02/17 01:15:43;;;;;;;32.08;15.75;;;;;;;10.29;94.81;101545.63;5053025;28;20449;-58
2023/02/17 01:18:12;;;;;;;31.83;14.88;;;;;;;10.26;94.67;101549.41;5055936;28;20390;-58
2023/02/17 01:20:40;;;;;;;28.73;14.38;;;;;;;10.30;94.84;101544.69;5056915;28;20478;-58
2023/02/17 01:23:09;;;;;;;33.00;13.93;;;;;;;10.37;94.68;101543.22;5055726;28;20069;-58
2023/02/17 01:25:37;;;;;;;34.80;14.40;;;;;;;10.35;94.77;101543.34;5056958;28;20055;-58
2023/02/17 01:28:05;;;;;;;32.10;14.65;;;;;;;10.36;94.72;101546.81;5056591;28;20485;-58
2023/02/17 01:30:32;;;;;;;30.85;14.48;;;;;;;10.32;94.87;101534.81;5056808;28;20072;-58
2023/02/17 01:32:59;;;;;;;27.85;14.77;;;;;;;10.23;95.73;101533.75;5056402;28;20048;-58
2023/02/17 01:35:25;;;;;;;27.90;14.65;;;;;;;10.35;95.16;101524.78;5056584;28;20520;-58
2023/02/17 01:37:53;;;;;;;37.63;15.13;;;;;;;10.19;96.01;101524.38;5053033;28;20037;-58
2023/02/17 01:40:22;;;;;;;25.65;14.25;;;;;;;10.31;95.08;101530.47;5056392;28;20052;-58
2023/02/17 01:42:50;;;;;;;28.92;13.45;;;;;;;10.24;95.70;101521.31;5056188;28;20083;-58
2023/02/17 01:45:22;;;;;;;28.42;13.88;;;;;;;10.30;94.98;101515.50;5056411;28;20380;-58
2023/02/17 01:48:10;;;;;;;27.33;13.18;;;;;;;10.31;95.24;101519.84;5056320;28;20045;-58
2023/02/17 01:50:51;;;;;;;25.65;13.38;;;;;;;10.35;95.07;101511.50;5056186;28;20041;-58
2023/02/17 01:53:24;;;;;;;28.90;13.55;;;;;;;10.37;95.22;101511.38;5056122;28;20405;-58
2023/02/17 01:55:53;;;;;;;28.00;13.73;;;;;;;10.37;94.55;101514.03;5056083;28;20094;-58
2023/02/17 01:58:23;;;;;;;24.83;12.93;;;;;;;10.26;95.50;101506.97;5055853;28;20094;-58
2023/02/17 02:00:53;;;;;;;28.00;13.77;;;;;;;10.32;95.19;101509.13;5054444;28;20079;-58
2023/02/17 02:03:21;;;;;;;22.48;12.65;;;;;;;10.43;95.32;101510.00;5056074;28;20076;-58
2023/02/17 02:05:48;;;;;;;31.45;13.15;;;;;;;10.38;94.99;101497.97;5055077;28;20059;-58
2023/02/17 02:08:15;;;;;;;27.38;13.30;;;;;;;10.41;95.06;101493.38;5055939;28;20070;-58
2023/02/17 02:10:42;;;;;;;24.45;12.32;;;;;;;10.32;95.52;101495.84;5056100;28;20045;-58
2023/02/17 02:13:08;;;;;;;26.35;12.88;;;;;;;10.30;95.61;101489.81;5055693;28;20445;-58
2023/02/17 02:15:44;;;;;;;24.52;12.32;;;;;;;10.29;95.49;101490.78;5055781;28;20041;-58
2023/02/17 02:18:51;;;;;;;24.60;12.75;;;;;;;10.35;95.71;101495.59;5056078;28;20041;-58
2023/02/17 02:21:48;;;;;;;26.88;12.63;;;;;;;10.37;95.28;101490.16;5055624;28;20045;-58
2023/02/17 02:24:24;;;;;;;25.92;12.23;;;;;;;10.35;95.96;101502.69;5055555;28;20091;-58
2023/02/17 02:27:23;;;;;;;21.80;11.98;;;;;;;10.40;95.49;101487.22;5055053;28;20037;-58
2023/02/17 02:30:18;;;;;;;21.90;12.48;;;;;;;10.45;95.46;101484.19;5054602;28;20173;-58
2023/02/17 02:32:58;;;;;;;26.65;11.90;;;;;;;10.40;95.66;101487.22;5054177;28;20127;-58
2023/02/17 02:35:39;;;;;;;27.48;13.23;;;;;;;10.43;95.56;101488.78;5055308;28;20461;-58
2023/02/17 02:38:19;;;;;;;22.15;12.02;;;;;;;10.27;96.40;101478.63;5055358;28;20044;-58
2023/02/17 02:40:51;;;;;;;23.63;12.52;;;;;;;10.38;95.84;101482.03;5055453;28;20128;-58
2023/02/17 02:43:19;;;;;;;23.25;13.15;;;;;;;10.39;95.91;101482.91;5055302;28;20041;-58
2023/02/17 02:45:47;;;;;;;35.28;13.05;;;;;;;10.41;95.56;101474.81;5055131;28;20434;-58
2023/02/17 02:48:13;;;;;;;25.20;11.95;;;;;;;10.45;95.18;101476.22;5055205;28;20052;-58
2023/02/17 02:51:09;;;;;;;24.58;12.45;;;;;;;10.35;96.01;101477.03;5054980;28;20033;-58
2023/02/17 02:54:16;;;;;;;21.95;12.55;;;;;;;10.31;96.14;101470.28;5054974;28;20124;-58
2023/02/17 02:56:53;;;;;;;24.67;12.27;;;;;;;10.36;95.73;101470.72;5054815;28;20048;-58
2023/02/17 02:59:47;;;;;;;21.75;11.88;;;;;;;10.49;95.18;101461.69;5054473;28;20123;-58
2023/02/17 03:07:47;;;;;;;23.88;12.63;;;;;;;10.40;95.27;101460.69;5110831;27;20354;-56
2023/02/17 03:10:14;;;;;;;23.95;12.55;;;;;;;10.41;95.39;101451.78;5109925;28;20508;-57
2023/02/17 03:12:41;;;;;;;23.15;12.32;;;;;;;10.44;94.99;101456.81;5110614;28;20093;-57
2023/02/17 03:15:18;;;;;;;22.83;11.65;;;;;;;10.55;94.77;101454.03;5110975;28;20032;-57
2023/02/17 03:17:45;;;;;;;24.38;12.27;;;;;;;10.53;94.75;101445.38;5111024;28;20044;-57
2023/02/17 03:20:13;;;;;;;21.13;12.00;;;;;;;10.52;94.82;101449.00;5111055;28;20061;-57
2023/02/17 03:22:44;;;;;;;25.35;12.05;;;;;;;10.51;94.68;101447.34;5110650;28;20089;-57
2023/02/17 03:25:13;;;;;;;22.73;12.27;;;;;;;10.54;94.81;101447.06;5110814;28;20079;-57
2023/02/17 03:27:41;;;;;;;27.60;12.55;;;;;;;10.45;94.99;101445.22;5110558;28;20043;-57
2023/02/17 03:30:08;;;;;;;27.00;12.75;;;;;;;10.51;94.40;101450.00;5111017;28;20550;-57
2023/02/17 03:32:36;;;;;;;21.55;11.95;;;;;;;10.53;94.66;101445.38;5110713;28;20558;-57
2023/02/17 03:35:03;;;;;;;23.92;12.95;;;;;;;10.41;95.46;101446.47;5110854;28;20040;-57
2023/02/17 03:37:30;;;;;;;22.80;12.25;;;;;;;10.49;94.29;101438.66;5107136;28;20059;-57
2023/02/17 03:39:58;;;;;;;20.45;11.75;;;;;;;10.51;94.87;101447.34;5130880;28;20120;-57
2023/02/17 03:42:24;;;;;;;26.40;12.30;;;;;;;10.51;94.94;101446.47;5130501;27;20438;-57
2023/02/17 03:44:52;;;;;;;24.00;12.07;;;;;;;10.61;94.37;101441.22;5130628;27;20070;-57
2023/02/17 03:47:18;;;;;;;20.88;13.05;;;;;;;10.61;94.25;101446.53;5130611;28;20043;-57
2023/02/17 03:49:45;;;;;;;24.25;13.25;;;;;;;10.67;93.87;101443.31;5130309;27;20140;-57
2023/02/17 03:52:12;;;;;;;26.27;12.95;;;;;;;10.54;94.32;101438.25;5110268;28;20062;-57
2023/02/17 03:54:39;;;;;;;23.15;12.70;;;;;;;10.50;94.81;101450.13;5110438;28;20493;-56
2023/02/17 03:57:05;;;;;;;25.98;13.05;;;;;;;10.53;94.74;101448.03;5109167;28;20094;-58
2023/02/17 03:59:32;;;;;;;20.95;12.50;;;;;;;10.55;94.68;101445.22;5109520;28;20071;-58
2023/02/17 04:01:58;;;;;;;24.73;13.18;;;;;;;10.64;94.11;101444.44;5109747;28;20048;-58
2023/02/17 04:04:26;;;;;;;27.13;13.32;;;;;;;10.51;94.91;101444.69;5109788;28;20071;-58
2023/02/17 04:06:52;;;;;;;24.48;13.23;;;;;;;10.55;94.52;101447.88;5109385;28;20447;-58
2023/02/17 04:09:19;;;;;;;28.23;12.73;;;;;;;10.52;94.91;101449.00;5109743;28;20048;-58
2023/02/17 04:11:46;;;;;;;22.42;12.88;;;;;;;10.58;94.65;101439.66;5110003;28;20045;-58
2023/02/17 04:14:12;;;;;;;26.30;13.18;;;;;;;10.52;94.66;101451.66;5109511;28;20036;-58
2023/02/17 04:16:39;;;;;;;25.80;13.13;;;;;;;10.68;93.84;101443.19;5109845;28;20036;-58
2023/02/17 04:19:06;;;;;;;23.23;13.23;;;;;;;10.61;94.35;101455.31;5095773;28;20504;-58
2023/02/17 04:21:33;;;;;;;22.35;12.88;;;;;;;10.63;94.11;101453.34;5095700;28;20036;-58
2023/02/17 04:24:02;;;;;;;21.42;12.40;;;;;;;10.65;93.59;101458.53;5096119;28;20101;-57
2023/02/17 04:26:29;;;;;;;25.98;13.35;;;;;;;10.49;94.30;101465.19;5096015;28;20052;-57
2023/02/17 04:28:56;;;;;;;23.55;13.38;;;;;;;10.56;94.67;101445.09;5095687;28;20106;-57
2023/02/17 04:31:24;;;;;;;24.88;12.70;;;;;;;10.64;93.49;101459.50;5096100;28;20074;-57
2023/02/17 04:33:51;;;;;;;22.33;12.07;;;;;;;10.71;93.19;101456.19;5095737;28;20044;-58
2023/02/17 04:36:17;;;;;;;23.38;12.98;;;;;;;10.61;93.55;101447.34;5095730;28;20040;-57
2023/02/17 04:38:44;;;;;;;20.73;12.55;;;;;;;10.61;93.90;101455.31;5095845;28;20102;-58
2023/02/17 04:41:11;;;;;;;21.50;12.63;;;;;;;10.64;93.21;101459.50;5095649;28;20052;-57
2023/02/17 04:43:38;;;;;;;24.73;12.95;;;;;;;10.70;93.08;101456.31;5095311;28;20048;-58
2023/02/17 04:46:05;;;;;;;22.70;12.07;;;;;;;10.60;93.27;101442.19;5095501;28;20178;-57
2023/02/17 04:48:32;;;;;;;23.50;12.20;;;;;;;10.58;93.72;101447.63;5095666;28;20389;-58
2023/02/17 04:50:59;;;;;;;25.67;13.32;;;;;;;10.63;93.39;101456.00;5095171;28;20123;-58
2023/02/17 04:53:26;;;;;;;22.48;12.68;;;;;;;10.64;93.50;101449.75;5095526;28;20048;-58
2023/02/17 04:55:52;;;;;;;24.30;14.18;;;;;;;10.65;93.02;101446.09;5095365;28;20044;-57
2023/02/17 04:58:19;;;;;;;23.00;12.75;;;;;;;10.66;93.34;101449.56;5094816;28;20357;-57
2023/02/17 05:00:48;;;;;;;22.90;12.45;;;;;;;10.69;93.17;101446.66;5094552;28;20448;-57
2023/02/17 05:03:16;;;;;;;22.35;12.70;;;;;;;10.77;92.46;101444.16;5093754;28;20051;-57
2023/02/17 05:05:43;;;;;;;23.05;13.30;;;;;;;10.65;93.27;101450.56;5094599;28;20087;-57
2023/02/17 05:08:10;;;;;;;22.60;12.05;;;;;;;10.67;92.82;101462.72;5094178;28;20047;-57
2023/02/17 05:10:37;;;;;;;23.42;12.20;;;;;;;10.69;92.94;101458.09;5094858;28;20370;-57
2023/02/17 05:13:03;;;;;;;20.98;11.82;;;;;;;10.50;93.69;101464.22;5095001;28;20078;-58
2023/02/17 05:15:30;;;;;;;20.90;11.82;;;;;;;10.60;93.33;101452.78;5095129;28;20075;-57
2023/02/17 05:18:00;;;;;;;22.13;11.52;;;;;;;10.73;92.71;101448.91;5095344;28;20036;-57
2023/02/17 05:20:26;;;;;;;20.42;11.52;;;;;;;10.62;93.23;101449.00;5095014;28;20485;-57
2023/02/17 05:22:53;;;;;;;17.60;10.35;;;;;;;10.55;93.50;101445.22;5093696;28;20097;-57
2023/02/17 05:25:20;;;;;;;24.60;11.50;;;;;;;10.65;93.20;101442.63;5093534;28;20044;-57
2023/02/17 05:27:47;;;;;;;20.98;11.73;;;;;;;10.69;92.94;101436.88;5094761;28;20048;-57
2023/02/17 05:30:13;;;;;;;21.85;11.75;;;;;;;10.60;93.41;101435.06;5093618;28;20173;-57
2023/02/17 05:32:40;;;;;;;19.08;11.43;;;;;;;10.70;92.87;101435.09;5094695;28;20098;-57
2023/02/17 05:35:07;;;;;;;21.23;11.05;;;;;;;10.68;92.86;101435.22;5094466;28;20451;-57
2023/02/17 05:37:34;;;;;;;22.10;11.20;;;;;;;10.68;92.81;101429.09;5094720;28;20040;-57
2023/02/17 05:40:00;;;;;;;19.50;11.68;;;;;;;10.68;93.09;101426.44;5107998;28;20047;-57
2023/02/17 05:42:28;;;;;;;21.77;11.43;;;;;;;10.60;93.25;101431.56;5114888;28;20096;-57
2023/02/17 05:44:55;;;;;;;22.08;11.07;;;;;;;10.70;93.34;101429.78;5114892;28;20100;-57
2023/02/17 05:47:22;;;;;;;19.75;11.32;;;;;;;10.69;93.28;101426.25;5114688;28;20088;-57
2023/02/17 05:49:49;;;;;;;22.55;11.30;;;;;;;10.74;92.90;101423.22;5112708;28;20043;-57
2023/02/17 05:52:17;;;;;;;18.95;11.10;;;;;;;10.63;93.59;101416.22;5094411;28;20123;-57
2023/02/17 05:54:43;;;;;;;20.85;11.25;;;;;;;10.61;93.78;101415.50;5094301;28;20048;-57
2023/02/17 05:57:10;;;;;;;21.17;10.32;;;;;;;10.61;93.78;101422.66;5093273;28;20445;-57
2023/02/17 05:59:37;;;;;;;20.42;11.85;;;;;;;10.57;94.17;101425.56;5075790;28;20040;-57
2023/02/17 06:02:03;;;;;;;21.65;11.10;;;;;;;10.64;93.73;101432.97;5093576;28;20048;-57
2023/02/17 06:04:30;;;;;;;19.00;10.55;;;;;;;10.70;93.67;101443.03;5093937;28;20508;-57
2023/02/17 06:06:57;;;;;;;23.58;10.80;;;;;;;10.68;93.48;101445.84;5093499;28;20052;-58
2023/02/17 06:09:23;;;;;;;25.08;11.50;;;;;;;10.58;93.97;101442.31;5094072;28;20044;-57
2023/02/17 06:11:50;;;;;;;22.65;11.43;;;;;;;10.62;94.35;101437.56;5093747;28;20039;-58
2023/02/17 06:14:18;;;;;;;21.52;11.60;;;;;;;10.60;94.27;101424.44;5093750;28;20496;-57
2023/02/17 06:16:44;;;;;;;18.88;11.23;;;;;;;10.72;93.80;101427.81;5094053;28;20040;-57
2023/02/17 06:19:11;;;;;;;19.33;11.35;;;;;;;10.79;93.29;101418.31;5093725;28;20044;-57
2023/02/17 06:21:38;;;;;;;25.92;11.85;;;;;;;10.69;93.91;101414.81;5093477;28;20071;-57
2023/02/17 06:24:05;;;;;;;23.38;11.13;;;;;;;10.66;94.30;101415.94;5093711;28;20040;-57
2023/02/17 06:26:31;;;;;;;20.15;11.15;;;;;;;10.68;94.63;101429.09;5093590;28;20098;-57
2023/02/17 06:28:58;;;;;;;20.00;11.57;;;;;;;10.70;94.54;101411.19;5093283;28;20040;-57
2023/02/17 06:31:24;;;;;;;24.30;11.80;;;;;;;10.68;94.61;101419.28;5093952;28;20048;-57
2023/02/17 06:33:51;;;;;;;21.88;11.27;;;;;;;10.70;94.75;101406.72;5093237;28;20036;-57
2023/02/17 06:36:19;;;;;;;21.08;10.48;;;;;;;10.70;95.06;101405.91;5093805;28;20040;-57
2023/02/17 06:38:45;;;;;;;26.30;11.07;;;;;;;10.66;95.14;101409.78;5093347;28;20071;-57
2023/02/17 06:41:12;;;;;;;20.20;11.25;;;;;;;10.71;95.25;101428.78;5093235;28;20096;-57
2023/02/17 06:43:39;;;;;;;22.95;11.13;;;;;;;10.66;95.17;101423.03;5093147;28;20051;-59
2023/02/17 06:46:06;;;;;;;18.83;11.38;;;;;;;10.62;95.73;101427.78;5093523;28;20044;-57
2023/02/17 06:48:34;;;;;;;22.30;11.20;;;;;;;10.61;95.84;101426.13;5093401;28;20131;-57
2023/02/17 06:51:01;;;;;;;21.15;10.90;;;;;;;10.63;95.80;101436.59;5092214;28;20048;-57
2023/02/17 06:53:27;;;;;;;20.52;11.55;;;;;;;10.62;96.35;101425.13;5093423;28;20044;-57
2023/02/17 06:55:54;;;;;;;21.77;10.38;;;;;;;10.66;96.20;101423.91;5093165;28;20109;-57
2023/02/17 06:58:21;;;;;;;22.40;11.02;;;;;;;10.71;96.83;101421.69;5092064;28;20040;-58
2023/02/17 07:00:48;;;;;;;20.08;10.95;;;;;;;10.75;97.29;101424.88;5092559;28;20068;-57
2023/02/17 07:03:15;;;;;;;22.70;10.40;;;;;;;10.71;97.71;101426.13;5093016;28;20048;-57
2023/02/17 07:05:41;;;;;;;19.55;11.65;;;;;;;10.71;97.78;101436.75;5088614;28;20598;-57
2023/02/17 07:08:08;;;;;;;20.90;10.93;;;;;;;10.70;98.04;101424.47;5089669;28;20047;-57
2023/02/17 07:10:36;;;;;;;20.27;11.77;;;;;;;10.56;98.58;101407.13;5072598;28;20046;-57
2023/02/17 07:13:03;;;;;;;24.30;11.18;;;;;;;10.61;98.54;101410.22;5072940;28;20053;-57
2023/02/17 07:15:30;;;;;;;20.73;10.73;;;;;;;10.63;98.55;101410.91;5072642;28;20412;-57
2023/02/17 07:17:56;;;;;;;19.55;10.45;;;;;;;10.65;98.70;101424.03;5073272;28;20044;-57
2023/02/17 07:20:23;;;;;;;23.70;11.57;;;;;;;10.61;98.14;101423.47;5078594;28;20566;-57
2023/02/17 07:22:50;;;;;;;25.10;11.15;;;;;;;10.66;98.41;101412.44;5093118;28;20401;-58
2023/02/17 07:25:16;;;;;;;20.73;10.60;;;;;;;10.66;97.64;101417.75;5093104;28;20075;-57
2023/02/17 07:27:43;;;;;;;20.75;10.45;;;;;;;10.76;97.09;101422.06;5092899;28;20048;-58
2023/02/17 07:30:10;;;;;;;20.10;10.65;;;;;;;10.71;97.60;101434.09;5074468;28;20396;-58
2023/02/17 07:32:38;;;;;;;21.50;10.00;;;;;;;10.74;97.61;101439.97;5091364;28;20048;-58
2023/02/17 07:35:07;;;;;;;19.55;9.80;;;;;;;10.80;97.07;101433.25;5092564;28;20043;-58
2023/02/17 07:37:34;;;;;;;21.80;10.05;;;;;;;10.76;97.13;101426.56;5092559;28;20401;-58
2023/02/17 07:40:01;;;;;;;16.63;9.13;;;;;;;10.79;97.09;101431.59;5089313;28;20393;-57
2023/02/17 07:42:28;;;;;;;17.65;9.23;;;;;;;10.80;97.26;101427.13;5111556;28;20056;-58
2023/02/17 07:44:55;;;;;;;20.27;10.02;;;;;;;10.76;97.19;101429.22;5112928;28;20114;-57
2023/02/17 07:47:21;;;;;;;19.15;9.93;;;;;;;10.76;97.56;101439.81;5112805;28;20493;-57
2023/02/17 07:49:49;;;;;;;17.50;8.18;;;;;;;10.89;97.01;101444.88;5111831;28;20047;-58
2023/02/17 07:52:17;;;;;;;19.15;9.38;;;;;;;10.86;97.00;101431.88;5092645;28;20064;-57
2023/02/17 07:54:44;;;;;;;19.70;9.70;;;;;;;10.77;97.57;101425.59;5096626;28;20131;-57
2023/02/17 07:57:11;;;;;;;17.83;8.68;;;;;;;10.88;97.07;101430.75;5096419;28;20059;-57
2023/02/17 07:59:38;;;;;;;20.98;9.88;;;;;;;10.83;97.51;101437.47;5095516;28;20061;-58
2023/02/17 08:02:05;;;;;;;14.98;8.30;;;;;;;10.91;97.56;101448.22;5096025;28;20044;-57
2023/02/17 08:04:31;;;;;;;21.27;9.15;;;;;;;10.87;97.83;101431.72;5096176;28;20051;-57
2023/02/17 08:06:58;;;;;;;18.02;9.48;;;;;;;10.89;97.57;101443.03;5094568;28;20113;-57
2023/02/17 08:15:04;;;;;;;23.55;9.93;;;;;;;11.01;96.80;101429.66;5094212;28;20109;-57
2023/02/17 08:17:31;;;;;;;20.63;10.35;;;;;;;10.90;97.67;101435.94;5096336;28;20048;-57
2023/02/17 08:19:58;;;;;;;21.35;10.27;;;;;;;11.02;96.97;101431.31;5096081;28;20052;-57
2023/02/17 08:22:31;;;;;;;19.73;10.10;;;;;;;11.01;97.05;101427.81;5095850;28;20054;-57
2023/02/17 08:24:58;;;;;;;18.92;9.52;;;;;;;11.03;97.41;101436.47;5095988;28;20044;-57
2023/02/17 08:27:25;;;;;;;21.25;10.13;;;;;;;11.18;96.37;101436.06;5090871;28;20534;-57
2023/02/17 08:29:51;;;;;;;20.33;10.13;;;;;;;11.30;95.10;101441.09;5066155;28;20135;-57
2023/02/17 08:32:21;;;;;;;17.95;10.13;;;;;;;11.37;94.88;101435.19;5063630;28;20094;-58
2023/02/17 08:34:48;;;;;;;19.20;9.63;;;;;;;11.46;94.51;101429.88;5089041;28;20044;-58
2023/02/17 08:37:15;;;;;;;19.63;9.90;;;;;;;11.63;93.66;101424.81;5088755;28;20043;-57
2023/02/17 08:39:41;;;;;;;18.67;8.82;;;;;;;11.38;94.83;101429.75;5089241;28;20120;-57
2023/02/17 08:42:09;;;;;;;16.40;9.18;;;;;;;11.57;93.68;101422.69;5089417;28;20127;-57
2023/02/17 08:44:36;;;;;;;14.93;8.68;;;;;;;11.67;93.63;101419.03;5096896;28;20048;-57
2023/02/17 08:47:04;;;;;;;18.08;9.32;;;;;;;11.70;93.33;101423.25;5070877;28;20076;-58
2023/02/17 08:49:31;;;;;;;19.30;8.90;;;;;;;11.78;92.84;101423.34;5099011;28;20040;-58
2023/02/17 08:51:59;;;;;;;20.65;8.75;;;;;;;11.80;92.53;101425.88;5071000;28;20043;-58
2023/02/17 08:54:26;;;;;;;20.58;9.38;;;;;;;11.93;91.97;101423.72;5085863;28;20039;-59
2023/02/17 08:56:53;;;;;;;19.10;9.50;;;;;;;11.87;92.43;101424.28;5074601;28;20054;-59
2023/02/17 08:59:20;;;;;;;21.85;9.02;;;;;;;11.86;92.06;101418.16;5084306;28;20048;-59
2023/02/17 09:01:46;;;;;;;16.45;8.77;;;;;;;11.78;93.28;101425.16;5068291;28;20048;-60
2023/02/17 09:04:14;;;;;;;20.35;8.70;;;;;;;11.95;92.12;101431.56;5083047;28;20560;-58
2023/02/17 09:06:45;;;;;;;20.15;9.32;;;;;;;12.17;91.03;101435.66;5072840;28;20052;-58
2023/02/17 09:09:14;;;;;;;26.00;12.77;;;;;;;12.10;91.00;101430.94;5087329;28;20127;-59
2023/02/17 09:11:41;;;;;;;19.63;9.57;;;;;;;12.09;91.18;101434.56;5092318;27;20040;-59
2023/02/17 09:14:09;;;;;;;19.55;9.20;;;;;;;12.03;91.59;101429.03;5088190;28;20036;-59
2023/02/17 09:16:36;;;;;;;18.20;8.80;;;;;;;11.99;91.85;101430.28;5073715;28;20127;-59
2023/02/17 09:19:06;;;;;;;16.38;7.22;;;;;;;12.02;92.01;101428.16;5084850;28;20044;-59
2023/02/17 09:21:32;;;;;;;18.85;8.73;;;;;;;12.17;90.93;101430.34;5068057;28;20048;-59
2023/02/17 09:23:59;;;;;;;28.98;8.57;;;;;;;12.16;91.37;101434.00;5093282;28;20048;-59
2023/02/17 09:26:25;;;;;;;17.58;8.18;;;;;;;12.16;91.34;101442.00;5063722;28;20048;-58
2023/02/17 09:28:52;;;;;;;16.58;7.97;;;;;;;12.00;92.33;101435.47;5085938;28;20114;-58
2023/02/17 09:31:22;;;;;;;23.02;7.78;;;;;;;12.08;92.01;101453.38;5065667;28;20125;-58
2023/02/17 09:33:50;;;;;;;17.90;8.90;;;;;;;12.10;92.12;101446.06;5086559;28;20056;-58
2023/02/17 09:36:20;;;;;;;21.15;8.05;;;;;;;12.09;92.33;101450.53;5067708;28;20040;-58
2023/02/17 09:38:47;;;;;;;19.92;9.63;;;;;;;12.16;91.90;101450.78;5065999;28;20123;-58
2023/02/17 09:41:21;;;;;;;16.70;7.45;;;;;;;12.18;91.32;101445.34;5092135;28;20044;-59
2023/02/17 09:43:50;;;;;;;15.75;7.35;;;;;;;12.16;92.13;101456.13;5080448;28;20060;-56
2023/02/17 09:46:28;;;;;;;21.02;8.10;;;;;;;12.23;91.91;101446.56;5102230;28;20070;-58
2023/02/17 09:49:01;;;;;;;14.68;7.35;;;;;;;12.34;91.47;101444.69;5068336;28;20111;-58
2023/02/17 09:51:34;;;;;;;17.05;7.32;;;;;;;12.47;90.40;101443.34;5094096;28;20371;-58
2023/02/17 09:54:14;;;;;;;17.20;7.72;;;;;;;12.51;90.44;101445.72;5062104;28;20048;-58
2023/02/17 09:56:45;;;;;;;20.42;7.65;;;;;;;12.62;89.85;101449.00;5101731;28;20397;-58
2023/02/17 09:59:39;;;;;;;17.52;6.38;;;;;;;12.55;89.95;101441.75;5064389;28;20024;-58
2023/02/17 10:02:18;;;;;;;13.95;6.35;;;;;;;12.47;90.28;101453.16;5070299;28;20463;-58
2023/02/17 10:04:49;;;;;;;15.48;7.22;;;;;;;12.59;90.30;101462.63;5080134;28;20040;-58
2023/02/17 10:07:24;;;;;;;19.40;6.93;;;;;;;12.58;89.64;101458.25;5071505;28;20056;-58
2023/02/17 10:10:01;;;;;;;18.15;7.20;;;;;;;12.55;90.01;101466.56;5091159;28;20039;-58
2023/02/17 10:12:36;;;;;;;15.90;6.95;;;;;;;12.58;89.79;101463.59;5067011;28;20051;-58
2023/02/17 10:15:10;;;;;;;13.27;6.78;;;;;;;12.54;90.37;101464.88;5108246;28;20035;-58
2023/02/17 10:18:01;;;;;;;18.75;7.22;;;;;;;12.64;89.89;101472.78;5067483;28;20401;-59
2023/02/17 10:20:40;;;;;;;18.60;7.68;;;;;;;12.77;89.36;101461.78;5090498;28;20101;-58
2023/02/17 10:23:14;;;;;;;15.15;6.68;;;;;;;12.71;89.60;101459.72;5074985;28;20063;-59
2023/02/17 10:26:21;;;;;;;18.10;7.20;;;;;;;12.75;89.27;101469.94;5093894;28;20445;-58
2023/02/17 10:28:52;;;;;;;13.05;6.57;;;;;;;12.78;89.03;101472.28;5063595;28;20042;-58
2023/02/17 10:31:47;;;;;;;14.25;6.05;;;;;;;12.89;88.99;101476.56;5076083;28;20040;-58
2023/02/17 10:34:36;;;;;;;15.52;7.28;;;;;;;12.96;88.56;101466.16;5066563;28;20040;-58
2023/02/17 10:37:13;;;;;;;14.70;6.90;;;;;;;13.00;88.38;101459.53;5096821;28;20040;-59
2023/02/17 10:39:48;;;;;;;12.85;6.03;;;;;;;13.00;88.01;101470.16;5066902;28;20105;-58
2023/02/17 10:42:34;;;;;;;13.02;6.55;;;;;;;12.94;88.38;101478.78;5088350;28;20040;-58
2023/02/17 10:45:07;;;;;;;14.80;6.20;;;;;;;12.87;88.42;101481.19;5063319;28;20130;-58
2023/02/17 10:47:37;;;;;;;13.52;6.40;;;;;;;12.98;88.18;101480.97;5082576;28;20493;-58
2023/02/17 10:50:13;;;;;;;12.98;6.45;;;;;;;12.93;88.42;101479.75;5068663;28;20052;-58
2023/02/17 10:52:40;;;;;;;14.48;6.45;;;;;;;12.92;88.82;101465.63;5096073;28;20040;-59
2023/02/17 10:55:19;;;;;;;14.13;6.47;;;;;;;12.90;89.04;101478.25;5064785;28;20039;-58
2023/02/17 10:57:57;;;;;;;14.52;6.88;;;;;;;12.96;87.93;101458.97;5086979;28;20040;-59
2023/02/17 11:00:25;;;;;;;17.70;6.72;;;;;;;12.99;87.99;101456.03;5072427;28;20405;-59
2023/02/17 11:02:52;;;;;;;14.35;6.97;;;;;;;13.09;88.13;101463.09;5071696;28;20131;-59
2023/02/17 11:05:26;;;;;;;14.13;6.80;;;;;;;13.02;88.02;101463.72;5067174;28;20131;-58
2023/02/17 11:07:56;;;;;;;16.48;7.10;;;;;;;13.05;88.23;101465.22;5079797;28;20060;-59
2023/02/17 11:10:40;;;;;;;15.18;7.20;;;;;;;13.12;87.71;101462.81;5092496;28;20035;-59
2023/02/17 11:13:29;;;;;;;18.75;7.40;;;;;;;13.14;87.55;101461.66;5071953;28;23209;-59
2023/02/17 11:15:57;;;;;;;17.27;7.07;;;;;;;13.21;87.17;101464.53;5080676;28;20038;-58
2023/02/17 11:18:28;;;;;;;17.08;7.50;;;;;;;13.29;86.87;101459.28;5072087;28;20770;-59
2023/02/17 11:21:08;;;;;;;15.90;7.28;;;;;;;13.38;86.45;101446.88;5088498;28;20123;-59
2023/02/17 11:23:45;;;;;;;15.98;7.28;;;;;;;13.43;86.17;101448.09;5072446;28;20032;-59
2023/02/17 11:26:22;;;;;;;17.05;6.43;;;;;;;13.54;85.36;101455.00;5088621;28;20039;-59
2023/02/17 11:28:49;;;;;;;14.82;6.13;;;;;;;13.52;85.49;101448.16;5071261;28;20036;-59
2023/02/17 11:31:25;;;;;;;14.43;6.93;;;;;;;13.85;83.93;101421.69;5093175;28;20569;-59
2023/02/17 11:33:53;;;;;;;14.45;6.72;;;;;;;13.72;84.48;101409.63;5067990;28;20045;-58
2023/02/17 11:36:27;;;;;;;17.80;6.93;;;;;;;14.26;82.27;101416.50;5094047;28;20047;-59